Time;durP1;ratioP1;P1;durP2;ratioP2;P2;SDS_P1;SDS_P2;PMS_P1;PMS_P2;Temp;Humidity;BMP_temperature;BMP_pressure;BME280_temperature;BME280_humidity;BME280_pressure;Samples;Min_cycle;Max_cycle;Signal;HPM_P1;HPM_P2
2022/08/01 00:00:07;;;;;;;;;;;;;;;25.09;37.68;98947.72;4390863;32;34237;-91
2022/08/01 00:02:37;;;;;;;;;;;;;;;25.49;37.08;98943.91;4390501;32;33993;-89
2022/08/01 00:05:05;;;;;;;;;;;;;;;25.50;37.10;98943.00;4391219;32;34120;-91
2022/08/01 00:07:36;;;;;;;;;;;;;;;25.41;37.06;98943.47;4390844;32;33177;-88
2022/08/01 00:10:04;;;;;;;;;;;;;;;25.54;36.87;98944.56;4377283;32;34222;-91
2022/08/01 00:12:31;;;;;;;;;;;;;;;25.49;36.76;98941.28;4390679;32;34507;-91
2022/08/01 00:14:58;;;;;;;;;;;;;;;25.42;37.02;98939.88;4390758;32;34218;-90
2022/08/01 00:17:26;;;;;;;;;;;;;;;25.45;36.90;98939.72;4390833;32;33121;-89
2022/08/01 00:19:53;;;;;;;;;;;;;;;25.35;37.03;98939.34;4390915;32;34943;-91
2022/08/01 00:22:20;;;;;;;;;;;;;;;25.39;37.09;98932.09;4390411;32;34040;-91
2022/08/01 00:24:48;;;;;;;;;;;;;;;25.39;37.06;98924.13;4377208;32;35044;-91
2022/08/01 00:27:15;;;;;;;;;;;;;;;25.67;36.45;98929.69;4390862;32;33481;-91
2022/08/01 00:29:42;;;;;;;;;;;;;;;25.60;36.48;98928.28;4390536;32;34309;-90
2022/08/01 00:32:30;;;;;;;;;;;;;;;25.28;36.98;98926.47;4390681;32;34439;-91
2022/08/01 00:34:57;;;;;;;;;;;;;;;25.16;37.22;98918.19;4390571;32;35522;-91
2022/08/01 00:37:25;;;;;;;;;;;;;;;25.07;37.55;98928.38;4390608;32;33174;-90
2022/08/01 00:39:52;;;;;;;;;;;;;;;25.02;37.81;98925.97;4376362;32;33993;-91
2022/08/01 00:42:19;;;;;;;;;;;;;;;25.01;37.73;98916.28;4390559;32;34485;-91
2022/08/01 00:44:46;;;;;;;;;;;;;;;25.16;37.21;98918.19;4390408;32;33920;-90
2022/08/01 00:47:14;;;;;;;;;;;;;;;24.98;37.63;98919.09;4390628;32;33488;-92
2022/08/01 00:49:41;;;;;;;;;;;;;;;25.03;37.47;98914.41;4390397;32;34065;-91
2022/08/01 00:52:08;;;;;;;;;;;;;;;25.16;37.30;98912.91;4390100;32;34306;-91
2022/08/01 00:54:36;;;;;;;;;;;;;;;25.24;36.96;98917.81;4376880;32;35263;-91
2022/08/01 00:57:03;;;;;;;;;;;;;;;25.00;37.43;98920.75;4390390;32;34593;-91
2022/08/01 00:59:35;;;;;;;;;;;;;;;25.18;37.23;98921.63;4390233;32;33757;-90
2022/08/01 01:02:03;;;;;;;;;;;;;;;25.07;37.32;98918.63;4376852;32;35021;-90
2022/08/01 01:04:41;;;;;;;;;;;;;;;25.19;37.30;98922.47;4377477;32;34318;-90
2022/08/01 01:07:20;;;;;;;;;;;;;;;25.15;37.34;98921.75;4390455;32;33581;-91
2022/08/01 01:09:52;;;;;;;;;;;;;;;25.18;37.13;98924.28;4390319;32;34186;-90
2022/08/01 01:12:32;;;;;;;;;;;;;;;25.10;37.32;98926.47;4376709;32;34251;-91
2022/08/01 01:15:04;;;;;;;;;;;;;;;25.06;37.50;98924.00;4389610;32;34543;-90
2022/08/01 01:17:36;;;;;;;;;;;;;;;25.15;37.10;98924.41;4389782;32;33630;-90
2022/08/01 01:20:17;;;;;;;;;;;;;;;24.98;37.45;98929.69;4378233;32;34139;-90
2022/08/01 01:22:45;;;;;;;;;;;;;;;24.96;37.48;98932.44;4376219;32;34252;-90
2022/08/01 01:25:31;;;;;;;;;;;;;;;24.84;37.73;98926.87;4390078;32;35274;-91
2022/08/01 01:28:00;;;;;;;;;;;;;;;24.64;38.19;98925.19;4390013;32;33703;-91
2022/08/01 01:30:28;;;;;;;;;;;;;;;24.68;38.11;98927.63;4389732;32;35055;-88
2022/08/01 01:32:55;;;;;;;;;;;;;;;24.62;38.41;98924.41;4389827;32;34509;-91
2022/08/01 01:35:24;;;;;;;;;;;;;;;25.00;37.74;98922.50;4376214;32;34056;-90
2022/08/01 01:37:53;;;;;;;;;;;;;;;25.05;37.35;98928.47;4376220;32;33519;-90
2022/08/01 01:40:20;;;;;;;;;;;;;;;24.95;37.51;98925.41;4389860;32;35079;-89
2022/08/01 01:42:48;;;;;;;;;;;;;;;24.71;38.13;98914.22;4389520;32;35156;-91
2022/08/01 01:45:15;;;;;;;;;;;;;;;24.89;37.68;98914.22;4389756;32;34264;-90
2022/08/01 01:47:42;;;;;;;;;;;;;;;24.98;37.18;98913.78;4389347;32;34552;-90
2022/08/01 01:50:10;;;;;;;;;;;;;;;25.06;37.05;98916.91;4377094;32;33835;-91
2022/08/01 01:52:38;;;;;;;;;;;;;;;24.98;37.22;98914.62;4378258;32;33829;-91
2022/08/01 01:55:05;;;;;;;;;;;;;;;25.04;36.99;98916.16;4378150;32;34498;-87
2022/08/01 01:57:33;;;;;;;;;;;;;;;25.02;37.09;98915.34;4391661;32;33310;-91
2022/08/01 02:00:00;;;;;;;;;;;;;;;24.86;37.38;98909.09;4391509;32;33488;-91
2022/08/01 02:02:27;;;;;;;;;;;;;;;24.94;37.07;98907.78;4391443;32;34452;-90
2022/08/01 02:04:55;;;;;;;;;;;;;;;24.74;37.61;98906.13;4377927;32;34141;-91
2022/08/01 02:07:24;;;;;;;;;;;;;;;24.87;37.49;98910.81;4391757;32;33419;-86
2022/08/01 02:09:51;;;;;;;;;;;;;;;24.59;38.26;98906.88;4378153;32;34263;-91
2022/08/01 02:12:18;;;;;;;;;;;;;;;24.58;38.26;98904.28;4377929;32;34095;-91
2022/08/01 02:14:46;;;;;;;;;;;;;;;24.66;37.87;98896.81;4377631;32;35847;-90
2022/08/01 02:17:15;;;;;;;;;;;;;;;24.50;38.52;98888.75;4377801;32;35075;-90
2022/08/01 02:19:42;;;;;;;;;;;;;;;24.70;38.11;98893.06;4391337;32;35070;-91
2022/08/01 02:22:11;;;;;;;;;;;;;;;24.67;38.13;98893.25;4391584;32;34381;-90
2022/08/01 02:24:43;;;;;;;;;;;;;;;24.83;37.82;98883.59;4377945;32;35309;-90
2022/08/01 02:27:24;;;;;;;;;;;;;;;24.49;38.60;98882.59;4378008;32;33295;-90
2022/08/01 02:29:54;;;;;;;;;;;;;;;24.50;38.63;98881.66;4391580;32;33798;-90
2022/08/01 02:32:41;;;;;;;;;;;;;;;24.22;38.91;98884.75;4391628;32;35206;-89
2022/08/01 02:35:29;;;;;;;;;;;;;;;24.11;39.50;98892.34;4390762;32;35281;-91
2022/08/01 02:37:57;;;;;;;;;;;;;;;24.27;39.03;98888.03;4391817;32;33437;-89
2022/08/01 02:40:27;;;;;;;;;;;;;;;24.01;39.63;98893.69;4378031;32;34952;-90
2022/08/01 02:42:54;;;;;;;;;;;;;;;24.25;39.08;98897.84;4378134;32;34433;-90
2022/08/01 02:45:22;;;;;;;;;;;;;;;23.74;39.00;98901.09;4377717;32;34573;-91
2022/08/01 02:47:49;;;;;;;;;;;;;;;23.17;40.07;98898.28;4391552;32;33298;-92
2022/08/01 02:50:17;;;;;;;;;;;;;;;24.12;38.58;98891.41;4391316;32;35070;-91
2022/08/01 02:52:46;;;;;;;;;;;;;;;23.94;38.82;98889.59;4377788;32;34268;-91
2022/08/01 02:55:13;;;;;;;;;;;;;;;23.56;39.62;98886.88;4377715;32;34269;-91
2022/08/01 02:57:40;;;;;;;;;;;;;;;24.02;38.85;98887.50;4377604;32;33787;-91
2022/08/01 03:00:18;;;;;;;;;;;;;;;23.93;38.94;98885.25;4378708;32;34097;-91
2022/08/01 03:02:50;;;;;;;;;;;;;;;23.24;40.46;98885.66;4377303;32;35193;-90
2022/08/01 03:05:17;;;;;;;;;;;;;;;23.67;39.68;98874.06;4377491;32;34294;-93
2022/08/01 03:07:45;;;;;;;;;;;;;;;24.04;39.05;98881.16;4391003;32;33688;-90
2022/08/01 03:10:15;;;;;;;;;;;;;;;23.72;39.78;98877.38;4377940;32;33860;-91
2022/08/01 03:12:43;;;;;;;;;;;;;;;22.94;41.53;98871.97;4391399;32;34343;-91
2022/08/01 03:15:13;;;;;;;;;;;;;;;23.83;39.78;98879.53;4377720;32;34509;-89
2022/08/01 03:17:40;;;;;;;;;;;;;;;23.99;39.95;98874.38;4377593;32;33641;-91
2022/08/01 03:20:08;;;;;;;;;;;;;;;23.71;40.58;98880.06;4391263;32;34975;-92
2022/08/01 03:22:35;;;;;;;;;;;;;;;24.19;39.33;98873.44;4377176;32;34101;-91
2022/08/01 03:25:03;;;;;;;;;;;;;;;23.68;40.34;98877.59;4377571;32;34338;-90
2022/08/01 03:27:30;;;;;;;;;;;;;;;23.01;41.91;98876.06;4377892;32;33738;-91
2022/08/01 03:29:57;;;;;;;;;;;;;;;23.53;40.82;98871.16;4377316;32;34090;-92
2022/08/01 03:32:25;;;;;;;;;;;;;;;23.12;41.72;98865.91;4377537;32;34749;-91
2022/08/01 03:34:53;;;;;;;;;;;;;;;23.16;41.88;98872.78;4377557;32;35179;-89
2022/08/01 03:37:31;;;;;;;;;;;;;;;24.10;39.84;98871.25;4377032;32;33680;-90
2022/08/01 03:40:00;;;;;;;;;;;;;;;23.17;41.94;98868.34;4377587;32;34209;-93
2022/08/01 03:42:31;;;;;;;;;;;;;;;22.57;43.21;98869.03;4377581;32;34324;-91
2022/08/01 03:44:59;;;;;;;;;;;;;;;23.44;41.60;98871.56;4377213;32;35368;-91
2022/08/01 03:47:29;;;;;;;;;;;;;;;23.23;41.93;98874.22;4391341;32;33736;-90
2022/08/01 03:49:57;;;;;;;;;;;;;;;23.52;41.30;98874.72;4377229;32;34013;-90
2022/08/01 03:52:25;;;;;;;;;;;;;;;24.25;40.02;98871.38;4376762;32;34263;-91
2022/08/01 03:54:54;;;;;;;;;;;;;;;24.44;39.52;98870.50;4377353;32;34565;-89
2022/08/01 03:57:22;;;;;;;;;;;;;;;24.02;40.31;98875.09;4390923;32;33662;-91
2022/08/01 04:00:06;;;;;;;;;;;;;;;24.37;39.72;98874.34;4352141;32;868496;-91
2022/08/01 04:02:38;;;;;;;;;;;;;;;23.82;41.15;98882.22;4390818;32;34079;-93
2022/08/01 04:05:05;;;;;;;;;;;;;;;;;;4377409;32;35351;-91
2022/08/01 04:07:35;;;;;;;;;;;;;;;23.38;42.29;98887.72;4391061;32;34953;-91
2022/08/01 04:10:03;;;;;;;;;;;;;;;22.45;44.30;98890.66;4390777;32;34902;-91
2022/08/01 04:12:30;;;;;;;;;;;;;;;23.65;41.67;98897.06;4390462;32;34392;-92
2022/08/01 04:14:58;;;;;;;;;;;;;;;23.50;42.22;98898.59;4390687;32;34394;-91
2022/08/01 04:17:25;;;;;;;;;;;;;;;23.43;42.37;98899.81;4390828;32;34444;-93
2022/08/01 04:19:53;;;;;;;;;;;;;;;22.87;43.71;98905.69;4390840;32;34939;-91
2022/08/01 04:22:20;;;;;;;;;;;;;;;23.23;43.26;98900.69;4390954;32;35219;-91
2022/08/01 04:24:53;;;;;;;;;;;;;;;23.81;41.98;98899.06;4390613;32;35378;-91
2022/08/01 04:27:24;;;;;;;;;;;;;;;23.97;41.48;98908.84;4377448;32;33678;-91
2022/08/01 04:30:11;;;;;;;;;;;;;;;24.90;39.58;98894.75;4379200;32;34983;-91
2022/08/01 04:32:44;;;;;;;;;;;;;;;25.13;39.41;98899.78;4377704;32;35446;-89
2022/08/01 04:35:12;;;;;;;;;;;;;;;24.81;39.82;98905.81;4390625;32;35440;-90
2022/08/01 04:38:01;;;;;;;;;;;;;;;26.39;37.00;98895.72;4390757;32;34510;-90
2022/08/01 04:40:28;;;;;;;;;;;;;;;26.81;35.74;98891.59;4376910;32;33566;-90
2022/08/01 04:42:55;;;;;;;;;;;;;;;26.76;35.78;98891.00;4376938;32;35018;-88
2022/08/01 04:45:23;;;;;;;;;;;;;;;25.78;37.44;98896.41;4376873;32;34583;-89
2022/08/01 04:47:50;;;;;;;;;;;;;;;26.77;35.76;98896.22;4376820;32;33518;-90
2022/08/01 04:50:17;;;;;;;;;;;;;;;25.75;37.38;98904.53;4376966;32;34379;-91
2022/08/01 04:52:45;;;;;;;;;;;;;;;26.24;36.78;98904.56;4377152;32;35011;-90
2022/08/01 04:55:12;;;;;;;;;;;;;;;27.17;35.19;98901.91;4390121;32;35047;-90
2022/08/01 04:57:41;;;;;;;;;;;;;;;27.00;35.21;98902.87;4390043;32;34436;-90
2022/08/01 05:00:08;;;;;;;;;;;;;;;26.92;35.40;98895.34;4364488;32;32984;-91
2022/08/01 05:02:36;;;;;;;;;;;;;;;27.14;34.86;98897.63;4390246;32;35858;-90
2022/08/01 05:05:05;;;;;;;;;;;;;;;26.38;36.33;98904.66;4376789;32;34243;-90
2022/08/01 05:07:35;;;;;;;;;;;;;;;26.86;36.01;98905.50;4377122;32;33115;-91
2022/08/01 05:10:11;;;;;;;;;;;;;;;26.97;35.30;98897.72;4390256;32;35280;-91
2022/08/01 05:12:39;;;;;;;;;;;;;;;26.30;36.30;98907.75;4389925;32;33783;-90
2022/08/01 05:15:06;;;;;;;;;;;;;;;27.46;34.70;98905.47;4390436;32;34761;-88
2022/08/01 05:17:42;;;;;;;;;;;;;;;28.02;33.72;98898.47;4390300;32;33523;-90
2022/08/01 05:20:10;;;;;;;;;;;;;;;28.39;33.07;98895.31;4389972;32;34036;-91
2022/08/01 05:22:37;;;;;;;;;;;;;;;27.22;34.83;98893.66;4390022;32;34195;-89
2022/08/01 05:25:05;;;;;;;;;;;;;;;27.73;34.24;98896.75;4390729;32;34219;-86
2022/08/01 05:27:37;;;;;;;;;;;;;;;27.59;34.54;98894.94;4365913;32;33058;-90
2022/08/01 05:30:08;;;;;;;;;;;;;;;27.07;35.03;98898.03;4378577;32;34604;-88
2022/08/01 05:32:35;;;;;;;;;;;;;;;27.15;35.55;98891.34;4392033;32;34026;-89
2022/08/01 05:35:03;;;;;;;;;;;;;;;27.35;35.76;98894.63;4366063;32;33915;-90
2022/08/01 05:37:30;;;;;;;;;;;;;;;27.57;34.71;98892.34;4391769;32;34013;-87
2022/08/01 05:39:57;;;;;;;;;;;;;;;27.14;35.48;98889.63;4392052;32;34198;-89
2022/08/01 05:42:25;;;;;;;;;;;;;;;27.91;34.38;98890.31;4392035;32;35136;-88
2022/08/01 05:44:52;;;;;;;;;;;;;;;28.02;33.62;98893.16;4391860;32;34468;-88
2022/08/01 05:47:19;;;;;;;;;;;;;;;27.39;35.19;98898.84;4392332;32;33523;-89
2022/08/01 05:49:46;;;;;;;;;;;;;;;28.32;33.22;98890.34;4392112;32;34379;-87
2022/08/01 05:52:14;;;;;;;;;;;;;;;27.73;34.10;98899.41;4391464;32;34350;-88
2022/08/01 05:54:41;;;;;;;;;;;;;;;27.81;34.04;98900.69;4391558;32;35095;-88
2022/08/01 05:57:08;;;;;;;;;;;;;;;26.86;36.42;98900.19;4390414;32;33606;-88
2022/08/01 05:59:37;;;;;;;;;;;;;;;27.13;35.50;98900.38;4391678;32;34312;-89
2022/08/01 06:02:04;;;;;;;;;;;;;;;27.20;35.44;98900.84;4391667;32;35314;-89
2022/08/01 06:04:32;;;;;;;;;;;;;;;28.31;33.59;98893.13;4391562;32;34410;-87
2022/08/01 06:06:59;;;;;;;;;;;;;;;28.39;33.30;98901.50;4390735;32;33429;-87
2022/08/01 06:09:27;;;;;;;;;;;;;;;28.07;34.04;98904.41;4391532;32;34822;-88
2022/08/01 06:11:54;;;;;;;;;;;;;;;28.43;33.44;98913.69;4391634;32;34604;-89
2022/08/01 06:14:21;;;;;;;;;;;;;;;28.04;34.15;98917.91;4391469;32;35059;-87
2022/08/01 06:16:48;;;;;;;;;;;;;;;27.78;34.34;98916.00;4377977;32;34439;-87
2022/08/01 06:19:16;;;;;;;;;;;;;;;28.43;33.38;98919.00;4391222;32;34095;-87
2022/08/01 06:21:43;;;;;;;;;;;;;;;28.69;33.19;98909.31;4390299;32;35414;-87
2022/08/01 06:24:10;;;;;;;;;;;;;;;28.21;34.45;98915.97;4391125;32;35041;-87
2022/08/01 06:26:38;;;;;;;;;;;;;;;28.93;33.49;98912.16;4391567;32;33691;-88
2022/08/01 06:29:05;;;;;;;;;;;;;;;28.76;33.75;98917.78;4391269;32;35014;-89
2022/08/01 06:31:35;;;;;;;;;;;;;;;28.20;34.22;98914.28;4391674;32;34289;-86
2022/08/01 06:34:03;;;;;;;;;;;;;;;28.66;33.42;98911.34;4391921;32;35369;-87
2022/08/01 06:36:30;;;;;;;;;;;;;;;28.34;34.76;98909.78;4393134;32;33345;-87
2022/08/01 06:38:57;;;;;;;;;;;;;;;28.55;34.48;98909.34;4390975;32;34295;-88
2022/08/01 06:41:25;;;;;;;;;;;;;;;27.39;36.17;98914.81;4391016;32;34133;-89
2022/08/01 06:43:52;;;;;;;;;;;;;;;28.84;33.86;98918.13;4391619;32;34995;-88
2022/08/01 06:46:19;;;;;;;;;;;;;;;28.78;33.60;98918.53;4391294;32;33590;-87
2022/08/01 06:48:47;;;;;;;;;;;;;;;29.27;34.10;98923.28;4391520;32;34984;-87
2022/08/01 06:51:17;;;;;;;;;;;;;;;29.19;33.78;98926.47;4391369;32;33870;-87
2022/08/01 06:53:44;;;;;;;;;;;;;;;28.26;34.34;98927.19;4391610;32;34615;-88
2022/08/01 06:56:12;;;;;;;;;;;;;;;29.34;33.25;98921.91;4391041;32;33706;-89
2022/08/01 06:58:39;;;;;;;;;;;;;;;29.13;33.11;98923.34;4391201;32;34576;-87
2022/08/01 07:01:07;;;;;;;;;;;;;;;28.83;33.21;98921.75;4377662;32;33962;-87
2022/08/01 07:03:35;;;;;;;;;;;;;;;29.77;31.62;98921.63;4390470;32;35979;-89
2022/08/01 07:06:24;;;;;;;;;;;;;;;29.55;32.15;98924.94;4379096;32;33279;-87
2022/08/01 07:08:52;;;;;;;;;;;;;;;30.00;31.03;98911.97;4377737;32;35013;-87
2022/08/01 07:11:19;;;;;;;;;;;;;;;29.56;31.59;98908.78;4378022;32;34353;-87
2022/08/01 07:13:47;;;;;;;;;;;;;;;30.57;31.40;98908.75;4391281;32;35155;-88
2022/08/01 07:16:15;;;;;;;;;;;;;;;30.06;29.54;98908.88;4390604;32;33734;-91
2022/08/01 07:18:42;;;;;;;;;;;;;;;29.73;29.80;98918.31;4391509;32;34174;-88
2022/08/01 07:21:09;;;;;;;;;;;;;;;29.05;31.59;98919.37;4391263;32;34523;-88
2022/08/01 07:23:56;;;;;;;;;;;;;;;27.77;33.11;98915.16;4391278;32;34226;-87
2022/08/01 07:26:26;;;;;;;;;;;;;;;29.61;30.75;98907.62;4391117;32;33966;-89
2022/08/01 07:28:53;;;;;;;;;;;;;;;29.36;30.57;98914.66;4391164;32;34493;-88
2022/08/01 07:31:21;;;;;;;;;;;;;;;28.57;31.75;98916.31;4391105;32;35265;-88
2022/08/01 07:33:48;;;;;;;;;;;;;;;29.51;31.83;98921.63;4390922;32;34564;-93
2022/08/01 07:36:16;;;;;;;;;;;;;;;29.80;30.55;98921.41;4391014;32;33419;-86
2022/08/01 07:38:44;;;;;;;;;;;;;;;29.64;32.02;98923.47;4390692;32;33908;-86
2022/08/01 07:41:11;;;;;;;;;;;;;;;29.58;31.82;98930.91;4391036;32;34509;-86
2022/08/01 07:43:38;;;;;;;;;;;;;;;30.61;30.18;98923.66;4390875;32;34832;-86
2022/08/01 07:46:06;;;;;;;;;;;;;;;29.31;31.04;98927.44;4390991;32;33419;-86
2022/08/01 07:48:33;;;;;;;;;;;;;;;29.47;31.20;98935.25;4387338;32;35175;-84
2022/08/01 07:51:00;;;;;;;;;;;;;;;29.11;32.33;98931.47;4387315;32;35391;-85
2022/08/01 07:53:28;;;;;;;;;;;;;;;29.20;31.93;98938.00;4390989;32;33982;-83
2022/08/01 07:55:56;;;;;;;;;;;;;;;29.90;31.33;98930.50;4390591;32;34477;-84
2022/08/01 07:58:23;;;;;;;;;;;;;;;29.60;32.17;98930.84;4390760;32;34270;-84
2022/08/01 08:00:50;;;;;;;;;;;;;;;29.99;31.29;98935.19;4390944;32;35193;-86
2022/08/01 08:03:18;;;;;;;;;;;;;;;29.52;31.07;98931.31;4390814;32;34012;-87
2022/08/01 08:05:45;;;;;;;;;;;;;;;30.14;30.72;98921.69;4390149;32;34429;-87
2022/08/01 08:08:25;;;;;;;;;;;;;;;29.23;31.90;98927.97;4390910;32;34232;-87
2022/08/01 08:10:53;;;;;;;;;;;;;;;30.39;29.09;98920.84;4377308;32;34301;-87
2022/08/01 08:13:20;;;;;;;;;;;;;;;29.34;31.47;98940.59;4390839;32;34171;-87
2022/08/01 08:15:48;;;;;;;;;;;;;;;29.42;32.03;98940.91;4390614;32;33607;-87
2022/08/01 08:18:15;;;;;;;;;;;;;;;29.56;32.44;98940.00;4390897;32;34163;-88
2022/08/01 08:20:43;;;;;;;;;;;;;;;29.82;31.63;98938.22;4390660;32;34128;-87
2022/08/01 08:26:12;;;;;;;;;;;;;;;29.20;33.13;98943.34;4390589;32;33275;-87
2022/08/01 08:28:39;;;;;;;;;;;;;;;29.70;32.59;98941.72;4391054;32;33790;-87
2022/08/01 08:31:07;;;;;;;;;;;;;;;29.92;32.49;98943.75;4391041;32;33994;-89
2022/08/01 08:33:52;;;;;;;;;;;;;;;29.29;32.63;98945.41;4378937;32;33893;-88
2022/08/01 08:36:19;;;;;;;;;;;;;;;28.61;34.12;98944.50;4390336;32;33017;-88
2022/08/01 08:38:46;;;;;;;;;;;;;;;30.14;31.31;98948.44;4390675;32;34346;-87
2022/08/01 08:41:14;;;;;;;;;;;;;;;29.96;32.47;98951.44;4390721;32;33780;-89
2022/08/01 08:43:47;;;;;;;;;;;;;;;30.22;32.13;98959.47;4377442;32;35173;-87
2022/08/01 08:46:14;;;;;;;;;;;;;;;29.81;32.87;98952.50;4390337;32;33347;-89
2022/08/01 08:48:41;;;;;;;;;;;;;;;29.86;30.81;98957.56;4376921;32;33844;-92
2022/08/01 08:51:11;;;;;;;;;;;;;;;29.82;32.83;98959.59;4390546;32;34564;-87
2022/08/01 08:53:43;;;;;;;;;;;;;;;28.41;33.86;98952.91;4377147;32;35051;-88
2022/08/01 08:56:13;;;;;;;;;;;;;;;29.28;32.95;98959.69;4376938;32;33310;-88
2022/08/01 08:58:41;;;;;;;;;;;;;;;29.46;32.53;98961.12;4376587;32;34577;-90
2022/08/01 09:01:08;;;;;;;;;;;;;;;29.56;31.89;98959.53;4376514;32;35180;-89
2022/08/01 09:03:36;;;;;;;;;;;;;;;29.76;31.72;98963.53;4390181;32;34585;-91
2022/08/01 09:06:03;;;;;;;;;;;;;;;29.76;32.20;98955.50;4376326;32;33419;-87
2022/08/01 09:08:31;;;;;;;;;;;;;;;30.00;31.47;98965.44;4390498;32;34143;-90
2022/08/01 09:10:58;;;;;;;;;;;;;;;29.69;31.08;98961.38;4376584;32;33800;-90
2022/08/01 09:13:26;;;;;;;;;;;;;;;28.94;32.35;98961.91;4376861;32;34215;-88
2022/08/01 09:15:53;;;;;;;;;;;;;;;29.09;32.27;98958.28;4390184;32;34526;-90
2022/08/01 09:18:30;;;;;;;;;;;;;;;28.73;33.17;98964.19;4376594;32;33669;-90
2022/08/01 09:21:16;;;;;;;;;;;;;;;29.81;32.12;98960.53;4390265;32;35340;-89
2022/08/01 09:23:45;;;;;;;;;;;;;;;29.75;31.62;98963.66;4377068;32;34999;-89
2022/08/01 09:26:21;;;;;;;;;;;;;;;30.38;30.90;98956.53;4377178;32;33757;-89
2022/08/01 09:28:50;;;;;;;;;;;;;;;30.62;29.90;98957.47;4376717;32;33827;-87
2022/08/01 09:31:18;;;;;;;;;;;;;;;30.02;31.43;98956.37;4390051;32;33995;-88
2022/08/01 09:33:46;;;;;;;;;;;;;;;29.50;31.53;98959.94;4389820;32;34902;-87
2022/08/01 09:36:16;;;;;;;;;;;;;;;29.54;32.02;98961.44;4363917;32;34274;-85
2022/08/01 09:38:45;;;;;;;;;;;;;;;29.75;31.28;98950.28;4386684;32;34886;-86
2022/08/01 09:41:17;;;;;;;;;;;;;;;29.71;31.46;98957.66;4390957;32;35197;-88
2022/08/01 09:43:50;;;;;;;;;;;;;;;30.29;30.57;98952.72;4400839;32;34584;-89
2022/08/01 09:46:17;;;;;;;;;;;;;;;30.05;30.74;98956.16;4403283;32;34471;-87
2022/08/01 09:48:55;;;;;;;;;;;;;;;30.08;31.71;98956.87;4405063;32;34005;-87
2022/08/01 09:51:30;;;;;;;;;;;;;;;30.12;31.66;98955.69;4400321;32;34156;-86
2022/08/01 09:54:27;;;;;;;;;;;;;;;29.33;32.13;98957.59;4378315;32;34622;-86
2022/08/01 09:56:54;;;;;;;;;;;;;;;29.93;31.39;98956.13;4376279;32;33412;-89
2022/08/01 09:59:22;;;;;;;;;;;;;;;30.43;30.82;98944.56;4375800;32;35071;-88
2022/08/01 10:01:58;;;;;;;;;;;;;;;31.25;29.89;98944.75;4373194;32;35133;-89
2022/08/01 10:04:27;;;;;;;;;;;;;;;31.50;28.72;98946.44;4389577;32;35200;-85
2022/08/01 10:07:02;;;;;;;;;;;;;;;30.20;30.67;98953.38;4389320;32;34651;-86
2022/08/01 10:09:32;;;;;;;;;;;;;;;30.32;29.70;98949.84;4376166;32;34048;-87
2022/08/01 10:12:07;;;;;;;;;;;;;;;30.29;29.37;98944.69;4390283;32;34499;-88
2022/08/01 10:14:42;;;;;;;;;;;;;;;30.26;29.97;98947.59;4391868;32;33923;-87
2022/08/01 10:17:13;;;;;;;;;;;;;;;30.29;30.39;98952.72;4391475;32;33406;-86
2022/08/01 10:19:45;;;;;;;;;;;;;;;31.07;29.45;98949.69;4391703;32;34076;-87
2022/08/01 10:22:18;;;;;;;;;;;;;;;30.00;30.23;98963.66;4390950;32;34243;-88
2022/08/01 10:24:47;;;;;;;;;;;;;;;31.35;28.38;98943.13;4378234;32;35171;-88
2022/08/01 10:27:15;;;;;;;;;;;;;;;30.40;29.67;98952.81;4391336;32;33430;-88
2022/08/01 10:30:04;;;;;;;;;;;;;;;31.12;28.57;98946.66;4391272;32;34879;-89
2022/08/01 10:32:47;;;;;;;;;;;;;;;30.28;30.12;98945.66;4388732;32;34892;-90
2022/08/01 10:35:17;;;;;;;;;;;;;;;30.44;29.40;98935.56;4391085;32;34164;-88
2022/08/01 10:38:05;;;;;;;;;;;;;;;30.69;29.12;98939.13;4379268;32;33715;-90
2022/08/01 10:40:37;;;;;;;;;;;;;;;30.57;30.68;98932.84;4390414;32;34237;-88
2022/08/01 10:43:05;;;;;;;;;;;;;;;31.22;28.96;98942.31;4378116;32;34922;-88
2022/08/01 10:45:33;;;;;;;;;;;;;;;30.46;30.37;98924.78;4377953;32;33803;-87
2022/08/01 10:48:04;;;;;;;;;;;;;;;31.78;27.67;98929.06;4391175;32;33509;-90
2022/08/01 10:50:33;;;;;;;;;;;;;;;32.30;27.52;98926.78;4377826;32;34866;-88
2022/08/01 10:53:12;;;;;;;;;;;;;;;32.15;28.12;98927.03;4377726;32;35131;-87
2022/08/01 10:55:50;;;;;;;;;;;;;;;31.65;27.52;98922.97;4378233;32;34039;-89
2022/08/01 10:58:36;;;;;;;;;;;;;;;31.80;28.73;98927.13;4391189;32;34546;-89
2022/08/01 11:01:14;;;;;;;;;;;;;;;31.02;28.85;98920.56;4391220;32;35160;-89
2022/08/01 11:03:42;;;;;;;;;;;;;;;31.24;29.11;98918.94;4391422;32;34821;-91
2022/08/01 11:06:44;;;;;;;;;;;;;;;30.26;29.44;98916.34;4379202;32;35248;-90
2022/08/01 11:09:13;;;;;;;;;;;;;;;31.54;27.40;98912.22;4368694;32;34000;-92
2022/08/01 11:12:03;;;;;;;;;;;;;;;31.20;28.68;98904.94;4391529;32;34907;-89
2022/08/01 11:14:33;;;;;;;;;;;;;;;31.58;28.25;98921.75;4377510;32;34352;-90
2022/08/01 11:17:36;;;;;;;;;;;;;;;32.18;27.52;98913.38;4379942;32;34731;-91
2022/08/01 11:20:10;;;;;;;;;;;;;;;30.95;28.22;98911.31;4390428;32;32807;-92
2022/08/01 11:22:59;;;;;;;;;;;;;;;31.71;27.82;98912.63;4377325;32;33951;-92
2022/08/01 11:25:37;;;;;;;;;;;;;;;31.24;27.88;98897.53;4391950;32;34420;-81
2022/08/01 11:28:25;;;;;;;;;;;;;;;31.76;26.62;98898.88;4377188;32;34006;-90
2022/08/01 11:31:01;;;;;;;;;;;;;;;32.35;26.33;98895.06;4377527;32;32154;-91
2022/08/01 11:33:39;;;;;;;;;;;;;;;31.14;26.41;98908.09;4391616;32;35127;-89
2022/08/01 11:36:09;;;;;;;;;;;;;;;32.21;25.56;98904.25;4391359;32;35329;-92
2022/08/01 11:38:36;;;;;;;;;;;;;;;31.70;26.67;98899.34;4391418;32;35198;-89
2022/08/01 11:41:10;;;;;;;;;;;;;;;31.64;26.30;98898.00;4391374;32;33924;-89
2022/08/01 11:43:58;;;;;;;;;;;;;;;30.68;27.89;98900.78;4390866;32;33978;-90
2022/08/01 11:47:02;;;;;;;;;;;;;;;32.00;26.20;98890.72;4377576;32;34200;-91
2022/08/01 11:49:36;;;;;;;;;;;;;;;31.67;26.89;98888.84;4343867;33;34411;-92
2022/08/01 11:52:05;;;;;;;;;;;;;;;30.12;27.89;98891.53;4378623;32;32953;-92
2022/08/01 11:54:40;;;;;;;;;;;;;;;30.84;27.57;98899.69;4391446;32;33895;-86
2022/08/01 11:57:08;;;;;;;;;;;;;;;31.38;26.45;98893.81;4377211;32;35370;-93
2022/08/01 11:59:41;;;;;;;;;;;;;;;31.25;27.74;98896.53;4377154;32;34434;-91
2022/08/01 12:02:38;;;;;;;;;;;;;;;31.53;26.27;98895.31;4380373;32;33932;-92
2022/08/01 12:05:06;;;;;;;;;;;;;;;30.90;26.98;98896.56;4391220;32;34092;-94
2022/08/01 12:07:35;;;;;;;;;;;;;;;31.71;25.19;98901.06;4377844;32;33990;-94
2022/08/01 12:10:06;;;;;;;;;;;;;;;31.22;26.41;98899.47;4390825;32;35218;-90
2022/08/01 12:12:35;;;;;;;;;;;;;;;32.00;26.09;98900.59;4377762;32;33700;-92
2022/08/01 12:15:05;;;;;;;;;;;;;;;30.83;26.79;98901.50;4377838;32;34448;-91
2022/08/01 12:17:40;;;;;;;;;;;;;;;30.74;27.63;98899.53;4391097;32;35325;-91
2022/08/01 12:20:28;;;;;;;;;;;;;;;31.53;27.18;98902.50;4379148;32;34437;-92
2022/08/01 12:23:02;;;;;;;;;;;;;;;31.77;27.32;98905.91;4377862;32;33468;-91
2022/08/01 12:25:29;;;;;;;;;;;;;;;31.99;25.67;98899.75;4391312;32;34277;-93
2022/08/01 12:28:01;;;;;;;;;;;;;;;31.27;26.44;98895.47;4391008;32;33757;-89
2022/08/01 12:30:30;;;;;;;;;;;;;;;31.12;27.09;98899.31;4390935;32;35226;-89
2022/08/01 12:32:58;;;;;;;;;;;;;;;31.90;26.18;98895.97;4391061;32;34462;-91
2022/08/01 12:35:26;;;;;;;;;;;;;;;32.40;26.59;98895.59;4376107;32;34408;-90
2022/08/01 12:37:58;;;;;;;;;;;;;;;32.00;26.58;98903.28;4377182;32;34736;-88
2022/08/01 12:40:27;;;;;;;;;;;;;;;32.03;27.27;98895.00;4384440;32;34346;-92
2022/08/01 12:42:56;;;;;;;;;;;;;;;31.02;27.94;98896.47;4376071;32;33780;-91
2022/08/01 12:45:29;;;;;;;;;;;;;;;31.63;27.70;98893.63;4377263;32;33752;-89
2022/08/01 12:47:59;;;;;;;;;;;;;;;31.76;27.17;98888.13;4376615;32;35172;-89
2022/08/01 12:50:30;;;;;;;;;;;;;;;31.42;27.32;98887.25;4375816;32;33985;-86
2022/08/01 12:52:58;;;;;;;;;;;;;;;31.64;28.57;98889.97;4370086;32;32917;-90
2022/08/01 12:55:26;;;;;;;;;;;;;;;30.85;28.39;98886.19;4390581;32;34598;-91
2022/08/01 12:58:03;;;;;;;;;;;;;;;31.33;27.55;98886.16;4390799;32;35351;-92
2022/08/01 13:00:31;;;;;;;;;;;;;;;31.63;26.78;98882.03;4390380;32;34314;-92
2022/08/01 13:03:01;;;;;;;;;;;;;;;31.47;28.31;98888.59;4389875;32;34448;-92
2022/08/01 13:05:28;;;;;;;;;;;;;;;31.86;27.15;98890.97;4390727;32;34280;-91
2022/08/01 13:07:55;;;;;;;;;;;;;;;31.41;27.06;98882.88;4376561;32;34452;-90